sensor_id;sensor_type;location;lat;lon;timestamp;P1;durP1;ratioP1;P2;durP2;ratioP2
51499;SDS011;39101;53.478;6.158;2023-10-19T00:00:39;20.93;;;14.53;;
51499;SDS011;39101;53.478;6.158;2023-10-19T00:03:09;19.90;;;14.90;;
51499;SDS011;39101;53.478;6.158;2023-10-19T00:05:35;17.00;;;13.53;;
51499;SDS011;39101;53.478;6.158;2023-10-19T00:08:02;21.90;;;14.17;;
51499;SDS011;39101;53.478;6.158;2023-10-19T00:10:51;24.43;;;14.50;;
51499;SDS011;39101;53.478;6.158;2023-10-19T00:13:28;22.65;;;14.55;;
51499;SDS011;39101;53.478;6.158;2023-10-19T00:15:55;23.63;;;14.40;;
51499;SDS011;39101;53.478;6.158;2023-10-19T00:18:22;21.93;;;15.60;;
51499;SDS011;39101;53.478;6.158;2023-10-19T00:20:50;24.77;;;14.87;;
51499;SDS011;39101;53.478;6.158;2023-10-19T00:23:21;22.73;;;15.73;;
51499;SDS011;39101;53.478;6.158;2023-10-19T00:25:59;20.23;;;14.80;;
51499;SDS011;39101;53.478;6.158;2023-10-19T00:28:33;24.80;;;15.77;;
51499;SDS011;39101;53.478;6.158;2023-10-19T00:31:00;22.13;;;16.70;;
51499;SDS011;39101;53.478;6.158;2023-10-19T00:33:32;23.50;;;16.20;;
51499;SDS011;39101;53.478;6.158;2023-10-19T00:36:01;24.70;;;16.40;;
51499;SDS011;39101;53.478;6.158;2023-10-19T00:38:36;24.57;;;16.03;;
51499;SDS011;39101;53.478;6.158;2023-10-19T00:41:03;24.13;;;16.03;;
51499;SDS011;39101;53.478;6.158;2023-10-19T00:43:36;25.00;;;16.43;;
51499;SDS011;39101;53.478;6.158;2023-10-19T00:46:09;26.47;;;17.90;;
51499;SDS011;39101;53.478;6.158;2023-10-19T00:51:42;28.67;;;16.80;;
51499;SDS011;39101;53.478;6.158;2023-10-19T00:54:27;24.57;;;16.30;;
51499;SDS011;39101;53.478;6.158;2023-10-19T00:59:40;24.43;;;16.37;;
51499;SDS011;39101;53.478;6.158;2023-10-19T01:02:13;24.63;;;17.43;;
51499;SDS011;39101;53.478;6.158;2023-10-19T01:04:43;26.17;;;17.17;;
51499;SDS011;39101;53.478;6.158;2023-10-19T01:07:11;24.40;;;16.87;;
51499;SDS011;39101;53.478;6.158;2023-10-19T01:09:40;24.00;;;16.63;;
51499;SDS011;39101;53.478;6.158;2023-10-19T01:12:09;25.20;;;17.30;;
51499;SDS011;39101;53.478;6.158;2023-10-19T01:15:12;29.53;;;17.53;;
51499;SDS011;39101;53.478;6.158;2023-10-19T01:17:49;28.03;;;17.57;;
51499;SDS011;39101;53.478;6.158;2023-10-19T01:20:19;27.03;;;19.10;;
51499;SDS011;39101;53.478;6.158;2023-10-19T01:22:55;31.97;;;19.97;;
51499;SDS011;39101;53.478;6.158;2023-10-19T01:28:26;32.97;;;18.93;;
51499;SDS011;39101;53.478;6.158;2023-10-19T01:31:13;29.70;;;20.00;;
51499;SDS011;39101;53.478;6.158;2023-10-19T01:33:42;28.70;;;19.00;;
51499;SDS011;39101;53.478;6.158;2023-10-19T01:36:09;27.10;;;19.13;;
51499;SDS011;39101;53.478;6.158;2023-10-19T01:38:36;28.60;;;19.70;;
51499;SDS011;39101;53.478;6.158;2023-10-19T01:41:06;28.40;;;19.40;;
51499;SDS011;39101;53.478;6.158;2023-10-19T01:43:45;33.17;;;21.40;;
51499;SDS011;39101;53.478;6.158;2023-10-19T01:46:13;31.30;;;19.57;;
51499;SDS011;39101;53.478;6.158;2023-10-19T01:48:47;32.83;;;20.20;;
51499;SDS011;39101;53.478;6.158;2023-10-19T01:51:15;27.63;;;19.73;;
51499;SDS011;39101;53.478;6.158;2023-10-19T01:53:41;26.77;;;20.43;;
51499;SDS011;39101;53.478;6.158;2023-10-19T01:56:11;29.50;;;20.45;;
51499;SDS011;39101;53.478;6.158;2023-10-19T01:58:41;31.23;;;20.40;;
51499;SDS011;39101;53.478;6.158;2023-10-19T02:01:08;23.70;;;18.20;;
51499;SDS011;39101;53.478;6.158;2023-10-19T02:03:38;25.63;;;17.35;;
51499;SDS011;39101;53.478;6.158;2023-10-19T02:06:08;23.20;;;18.60;;
51499;SDS011;39101;53.478;6.158;2023-10-19T02:09:04;28.08;;;17.95;;
51499;SDS011;39101;53.478;6.158;2023-10-19T02:11:47;34.73;;;20.63;;
51499;SDS011;39101;53.478;6.158;2023-10-19T02:14:14;27.83;;;20.23;;
51499;SDS011;39101;53.478;6.158;2023-10-19T02:16:44;23.83;;;17.40;;
51499;SDS011;39101;53.478;6.158;2023-10-19T02:19:17;25.90;;;18.40;;
51499;SDS011;39101;53.478;6.158;2023-10-19T02:21:47;26.38;;;18.80;;
51499;SDS011;39101;53.478;6.158;2023-10-19T02:24:14;26.77;;;18.10;;
51499;SDS011;39101;53.478;6.158;2023-10-19T02:26:43;30.10;;;19.60;;
51499;SDS011;39101;53.478;6.158;2023-10-19T02:29:11;28.97;;;19.57;;
51499;SDS011;39101;53.478;6.158;2023-10-19T02:31:41;24.83;;;17.43;;
51499;SDS011;39101;53.478;6.158;2023-10-19T02:34:08;26.20;;;19.10;;
51499;SDS011;39101;53.478;6.158;2023-10-19T02:36:35;26.93;;;18.27;;
51499;SDS011;39101;53.478;6.158;2023-10-19T02:39:03;25.47;;;18.37;;
51499;SDS011;39101;53.478;6.158;2023-10-19T02:41:33;24.77;;;17.47;;
51499;SDS011;39101;53.478;6.158;2023-10-19T02:44:03;27.65;;;17.75;;
51499;SDS011;39101;53.478;6.158;2023-10-19T02:46:29;21.37;;;16.43;;
51499;SDS011;39101;53.478;6.158;2023-10-19T02:48:59;25.07;;;17.10;;
51499;SDS011;39101;53.478;6.158;2023-10-19T02:51:35;20.93;;;16.00;;
51499;SDS011;39101;53.478;6.158;2023-10-19T02:54:02;26.80;;;18.90;;
51499;SDS011;39101;53.478;6.158;2023-10-19T02:56:27;20.13;;;14.17;;
51499;SDS011;39101;53.478;6.158;2023-10-19T02:58:56;23.10;;;15.27;;
51499;SDS011;39101;53.478;6.158;2023-10-19T03:01:41;25.50;;;15.07;;
51499;SDS011;39101;53.478;6.158;2023-10-19T03:04:09;19.13;;;14.10;;
51499;SDS011;39101;53.478;6.158;2023-10-19T03:06:38;22.87;;;15.03;;
51499;SDS011;39101;53.478;6.158;2023-10-19T03:09:06;22.37;;;14.73;;
51499;SDS011;39101;53.478;6.158;2023-10-19T03:11:42;21.33;;;15.33;;
51499;SDS011;39101;53.478;6.158;2023-10-19T03:14:09;25.57;;;14.40;;
51499;SDS011;39101;53.478;6.158;2023-10-19T03:16:39;24.23;;;15.15;;
51499;SDS011;39101;53.478;6.158;2023-10-19T03:19:08;25.27;;;15.07;;
51499;SDS011;39101;53.478;6.158;2023-10-19T03:21:34;20.83;;;14.27;;
51499;SDS011;39101;53.478;6.158;2023-10-19T03:24:13;19.10;;;12.40;;
51499;SDS011;39101;53.478;6.158;2023-10-19T03:27:00;19.60;;;13.83;;
51499;SDS011;39101;53.478;6.158;2023-10-19T03:29:56;19.97;;;12.70;;
51499;SDS011;39101;53.478;6.158;2023-10-19T03:32:25;21.50;;;12.97;;
51499;SDS011;39101;53.478;6.158;2023-10-19T03:35:00;17.23;;;11.27;;
51499;SDS011;39101;53.478;6.158;2023-10-19T03:37:27;17.10;;;11.83;;
51499;SDS011;39101;53.478;6.158;2023-10-19T03:39:57;17.67;;;10.57;;
51499;SDS011;39101;53.478;6.158;2023-10-19T03:42:23;22.63;;;10.93;;
51499;SDS011;39101;53.478;6.158;2023-10-19T03:45:05;20.73;;;12.03;;
51499;SDS011;39101;53.478;6.158;2023-10-19T03:47:39;26.20;;;12.30;;
51499;SDS011;39101;53.478;6.158;2023-10-19T03:50:08;28.50;;;13.13;;
51499;SDS011;39101;53.478;6.158;2023-10-19T03:52:57;14.47;;;9.80;;
51499;SDS011;39101;53.478;6.158;2023-10-19T03:55:23;15.40;;;10.20;;
51499;SDS011;39101;53.478;6.158;2023-10-19T03:57:49;20.70;;;11.27;;
51499;SDS011;39101;53.478;6.158;2023-10-19T04:00:19;15.45;;;11.07;;
51499;SDS011;39101;53.478;6.158;2023-10-19T04:05:20;15.85;;;9.50;;
51499;SDS011;39101;53.478;6.158;2023-10-19T04:07:48;13.57;;;9.13;;
51499;SDS011;39101;53.478;6.158;2023-10-19T04:10:20;13.07;;;9.37;;
51499;SDS011;39101;53.478;6.158;2023-10-19T04:12:54;15.33;;;8.93;;
51499;SDS011;39101;53.478;6.158;2023-10-19T04:15:20;16.03;;;9.73;;
51499;SDS011;39101;53.478;6.158;2023-10-19T04:17:47;12.33;;;9.10;;
51499;SDS011;39101;53.478;6.158;2023-10-19T04:20:14;15.90;;;9.73;;
51499;SDS011;39101;53.478;6.158;2023-10-19T04:22:41;14.67;;;9.53;;
51499;SDS011;39101;53.478;6.158;2023-10-19T04:25:07;14.13;;;8.33;;
51499;SDS011;39101;53.478;6.158;2023-10-19T04:27:33;12.43;;;8.20;;
51499;SDS011;39101;53.478;6.158;2023-10-19T04:30:02;11.20;;;9.33;;
51499;SDS011;39101;53.478;6.158;2023-10-19T04:32:28;12.90;;;9.67;;
51499;SDS011;39101;53.478;6.158;2023-10-19T04:34:53;14.30;;;8.93;;
51499;SDS011;39101;53.478;6.158;2023-10-19T04:37:19;13.77;;;8.37;;
51499;SDS011;39101;53.478;6.158;2023-10-19T04:39:45;11.70;;;8.63;;
51499;SDS011;39101;53.478;6.158;2023-10-19T04:42:11;15.37;;;9.13;;
51499;SDS011;39101;53.478;6.158;2023-10-19T04:44:37;12.67;;;8.70;;
51499;SDS011;39101;53.478;6.158;2023-10-19T04:47:02;14.27;;;8.40;;
51499;SDS011;39101;53.478;6.158;2023-10-19T04:49:28;12.13;;;8.50;;
51499;SDS011;39101;53.478;6.158;2023-10-19T04:51:54;14.17;;;8.10;;
51499;SDS011;39101;53.478;6.158;2023-10-19T04:54:19;11.97;;;7.30;;
51499;SDS011;39101;53.478;6.158;2023-10-19T04:56:45;11.97;;;7.60;;
51499;SDS011;39101;53.478;6.158;2023-10-19T04:59:11;14.90;;;7.17;;
51499;SDS011;39101;53.478;6.158;2023-10-19T05:01:36;12.93;;;6.27;;
51499;SDS011;39101;53.478;6.158;2023-10-19T05:04:02;14.20;;;7.33;;
51499;SDS011;39101;53.478;6.158;2023-10-19T05:06:28;11.23;;;6.77;;
51499;SDS011;39101;53.478;6.158;2023-10-19T05:08:54;12.50;;;6.93;;
51499;SDS011;39101;53.478;6.158;2023-10-19T05:11:20;10.93;;;6.23;;
51499;SDS011;39101;53.478;6.158;2023-10-19T05:13:45;9.77;;;6.20;;
51499;SDS011;39101;53.478;6.158;2023-10-19T05:16:11;10.33;;;5.77;;
51499;SDS011;39101;53.478;6.158;2023-10-19T05:18:37;11.57;;;6.67;;
51499;SDS011;39101;53.478;6.158;2023-10-19T05:21:03;18.37;;;8.17;;
51499;SDS011;39101;53.478;6.158;2023-10-19T05:23:30;8.97;;;5.53;;
51499;SDS011;39101;53.478;6.158;2023-10-19T05:26:00;12.40;;;6.60;;
51499;SDS011;39101;53.478;6.158;2023-10-19T05:28:27;9.60;;;6.37;;
51499;SDS011;39101;53.478;6.158;2023-10-19T05:30:53;7.63;;;5.07;;
51499;SDS011;39101;53.478;6.158;2023-10-19T05:33:19;11.47;;;5.30;;
51499;SDS011;39101;53.478;6.158;2023-10-19T05:35:48;9.73;;;5.80;;
51499;SDS011;39101;53.478;6.158;2023-10-19T05:38:14;12.17;;;5.23;;
51499;SDS011;39101;53.478;6.158;2023-10-19T05:40:41;10.63;;;5.17;;
51499;SDS011;39101;53.478;6.158;2023-10-19T05:43:08;9.77;;;5.40;;
51499;SDS011;39101;53.478;6.158;2023-10-19T05:45:34;9.50;;;5.47;;
51499;SDS011;39101;53.478;6.158;2023-10-19T05:48:01;10.00;;;5.30;;
51499;SDS011;39101;53.478;6.158;2023-10-19T05:50:36;8.93;;;4.63;;
51499;SDS011;39101;53.478;6.158;2023-10-19T05:53:03;9.63;;;4.90;;
51499;SDS011;39101;53.478;6.158;2023-10-19T05:55:30;15.03;;;5.37;;
51499;SDS011;39101;53.478;6.158;2023-10-19T05:57:57;13.00;;;5.20;;
51499;SDS011;39101;53.478;6.158;2023-10-19T06:00:22;12.63;;;6.00;;
51499;SDS011;39101;53.478;6.158;2023-10-19T06:02:51;16.23;;;5.07;;
51499;SDS011;39101;53.478;6.158;2023-10-19T06:05:18;13.13;;;5.03;;
51499;SDS011;39101;53.478;6.158;2023-10-19T06:07:45;12.70;;;5.40;;
51499;SDS011;39101;53.478;6.158;2023-10-19T06:10:21;9.17;;;5.60;;
51499;SDS011;39101;53.478;6.158;2023-10-19T06:12:50;9.77;;;4.13;;
51499;SDS011;39101;53.478;6.158;2023-10-19T06:15:18;8.30;;;4.30;;
51499;SDS011;39101;53.478;6.158;2023-10-19T06:17:51;9.40;;;4.17;;
51499;SDS011;39101;53.478;6.158;2023-10-19T06:20:17;8.73;;;4.30;;
51499;SDS011;39101;53.478;6.158;2023-10-19T06:22:50;8.77;;;4.47;;
51499;SDS011;39101;53.478;6.158;2023-10-19T06:25:17;9.03;;;4.77;;
51499;SDS011;39101;53.478;6.158;2023-10-19T06:27:46;9.65;;;5.00;;
51499;SDS011;39101;53.478;6.158;2023-10-19T06:30:13;10.10;;;3.57;;
51499;SDS011;39101;53.478;6.158;2023-10-19T06:33:01;6.73;;;4.27;;
51499;SDS011;39101;53.478;6.158;2023-10-19T06:35:28;6.60;;;4.13;;
51499;SDS011;39101;53.478;6.158;2023-10-19T06:37:57;9.55;;;4.82;;
51499;SDS011;39101;53.478;6.158;2023-10-19T06:40:24;5.63;;;3.10;;
51499;SDS011;39101;53.478;6.158;2023-10-19T06:42:51;7.93;;;4.10;;
51499;SDS011;39101;53.478;6.158;2023-10-19T06:45:20;4.90;;;3.37;;
51499;SDS011;39101;53.478;6.158;2023-10-19T06:47:47;6.80;;;3.73;;
51499;SDS011;39101;53.478;6.158;2023-10-19T06:50:14;8.43;;;3.97;;
51499;SDS011;39101;53.478;6.158;2023-10-19T06:52:45;4.80;;;3.60;;
51499;SDS011;39101;53.478;6.158;2023-10-19T06:55:15;4.00;;;2.78;;
51499;SDS011;39101;53.478;6.158;2023-10-19T06:57:51;8.67;;;3.50;;
51499;SDS011;39101;53.478;6.158;2023-10-19T07:00:19;6.13;;;3.07;;
51499;SDS011;39101;53.478;6.158;2023-10-19T07:02:46;7.53;;;3.10;;
51499;SDS011;39101;53.478;6.158;2023-10-19T07:05:14;3.50;;;2.40;;
51499;SDS011;39101;53.478;6.158;2023-10-19T07:07:43;5.15;;;4.13;;
51499;SDS011;39101;53.478;6.158;2023-10-19T07:10:10;5.37;;;2.53;;
51499;SDS011;39101;53.478;6.158;2023-10-19T07:12:38;4.27;;;2.90;;
51499;SDS011;39101;53.478;6.158;2023-10-19T07:15:06;5.40;;;2.90;;
51499;SDS011;39101;53.478;6.158;2023-10-19T07:17:36;4.30;;;3.03;;
51499;SDS011;39101;53.478;6.158;2023-10-19T07:20:03;5.13;;;2.97;;
51499;SDS011;39101;53.478;6.158;2023-10-19T07:22:34;4.87;;;3.10;;
51499;SDS011;39101;53.478;6.158;2023-10-19T07:25:07;7.15;;;3.10;;
51499;SDS011;39101;53.478;6.158;2023-10-19T07:27:34;5.18;;;3.35;;
51499;SDS011;39101;53.478;6.158;2023-10-19T07:30:03;5.03;;;2.63;;
51499;SDS011;39101;53.478;6.158;2023-10-19T07:32:34;6.17;;;3.47;;
51499;SDS011;39101;53.478;6.158;2023-10-19T07:35:00;4.47;;;3.60;;
51499;SDS011;39101;53.478;6.158;2023-10-19T07:37:26;5.37;;;3.57;;
51499;SDS011;39101;53.478;6.158;2023-10-19T07:39:53;5.97;;;3.30;;
51499;SDS011;39101;53.478;6.158;2023-10-19T07:42:22;5.43;;;3.77;;
51499;SDS011;39101;53.478;6.158;2023-10-19T07:44:48;4.67;;;3.47;;
51499;SDS011;39101;53.478;6.158;2023-10-19T07:47:14;4.47;;;3.17;;
51499;SDS011;39101;53.478;6.158;2023-10-19T07:49:40;5.27;;;3.43;;
51499;SDS011;39101;53.478;6.158;2023-10-19T07:52:06;4.17;;;3.03;;
51499;SDS011;39101;53.478;6.158;2023-10-19T07:54:36;5.73;;;3.60;;
51499;SDS011;39101;53.478;6.158;2023-10-19T07:57:03;4.38;;;3.10;;
51499;SDS011;39101;53.478;6.158;2023-10-19T07:59:34;4.20;;;2.90;;
51499;SDS011;39101;53.478;6.158;2023-10-19T08:02:00;5.43;;;3.87;;
51499;SDS011;39101;53.478;6.158;2023-10-19T08:04:27;3.97;;;3.17;;
51499;SDS011;39101;53.478;6.158;2023-10-19T08:06:54;4.70;;;2.70;;
51499;SDS011;39101;53.478;6.158;2023-10-19T08:09:21;5.10;;;3.47;;
51499;SDS011;39101;53.478;6.158;2023-10-19T08:11:51;5.97;;;2.87;;
51499;SDS011;39101;53.478;6.158;2023-10-19T08:14:21;4.47;;;3.17;;
51499;SDS011;39101;53.478;6.158;2023-10-19T08:16:49;3.13;;;2.30;;
51499;SDS011;39101;53.478;6.158;2023-10-19T08:19:16;4.80;;;2.90;;
51499;SDS011;39101;53.478;6.158;2023-10-19T08:21:41;8.10;;;3.60;;
51499;SDS011;39101;53.478;6.158;2023-10-19T08:24:07;4.23;;;2.90;;
51499;SDS011;39101;53.478;6.158;2023-10-19T08:26:39;4.40;;;3.10;;
51499;SDS011;39101;53.478;6.158;2023-10-19T08:29:06;4.30;;;2.23;;
51499;SDS011;39101;53.478;6.158;2023-10-19T08:31:38;4.80;;;2.97;;
51499;SDS011;39101;53.478;6.158;2023-10-19T08:34:05;4.97;;;3.30;;
51499;SDS011;39101;53.478;6.158;2023-10-19T08:36:31;4.47;;;2.80;;
51499;SDS011;39101;53.478;6.158;2023-10-19T08:38:56;4.10;;;2.93;;
51499;SDS011;39101;53.478;6.158;2023-10-19T08:41:22;3.93;;;2.77;;
51499;SDS011;39101;53.478;6.158;2023-10-19T08:43:48;6.17;;;3.10;;
51499;SDS011;39101;53.478;6.158;2023-10-19T08:46:16;4.03;;;3.23;;
51499;SDS011;39101;53.478;6.158;2023-10-19T08:48:42;4.17;;;3.00;;
51499;SDS011;39101;53.478;6.158;2023-10-19T08:51:11;6.27;;;3.37;;
51499;SDS011;39101;53.478;6.158;2023-10-19T08:53:37;4.27;;;3.40;;
51499;SDS011;39101;53.478;6.158;2023-10-19T08:56:08;3.53;;;2.70;;
51499;SDS011;39101;53.478;6.158;2023-10-19T08:58:34;5.03;;;3.30;;
51499;SDS011;39101;53.478;6.158;2023-10-19T09:01:04;5.00;;;3.60;;
51499;SDS011;39101;53.478;6.158;2023-10-19T09:03:32;5.60;;;4.17;;
51499;SDS011;39101;53.478;6.158;2023-10-19T09:06:02;5.80;;;4.07;;
51499;SDS011;39101;53.478;6.158;2023-10-19T09:08:30;5.10;;;3.60;;
51499;SDS011;39101;53.478;6.158;2023-10-19T09:11:06;4.97;;;3.20;;
51499;SDS011;39101;53.478;6.158;2023-10-19T09:13:52;4.53;;;2.87;;
51499;SDS011;39101;53.478;6.158;2023-10-19T09:16:21;5.27;;;3.20;;
51499;SDS011;39101;53.478;6.158;2023-10-19T09:18:50;4.43;;;3.50;;
51499;SDS011;39101;53.478;6.158;2023-10-19T09:21:19;5.40;;;2.90;;
51499;SDS011;39101;53.478;6.158;2023-10-19T09:23:57;5.67;;;3.57;;
51499;SDS011;39101;53.478;6.158;2023-10-19T09:26:23;5.20;;;3.13;;
51499;SDS011;39101;53.478;6.158;2023-10-19T09:28:50;5.60;;;3.37;;
51499;SDS011;39101;53.478;6.158;2023-10-19T09:31:17;5.83;;;3.60;;
51499;SDS011;39101;53.478;6.158;2023-10-19T09:33:52;5.27;;;3.47;;
51499;SDS011;39101;53.478;6.158;2023-10-19T09:36:25;4.50;;;3.30;;
51499;SDS011;39101;53.478;6.158;2023-10-19T09:38:55;4.97;;;3.80;;
51499;SDS011;39101;53.478;6.158;2023-10-19T09:41:23;4.43;;;3.60;;
51499;SDS011;39101;53.478;6.158;2023-10-19T09:43:53;4.10;;;3.23;;
51499;SDS011;39101;53.478;6.158;2023-10-19T09:46:32;5.17;;;3.77;;
51499;SDS011;39101;53.478;6.158;2023-10-19T09:49:00;6.10;;;3.63;;
51499;SDS011;39101;53.478;6.158;2023-10-19T09:51:26;5.80;;;3.60;;
51499;SDS011;39101;53.478;6.158;2023-10-19T09:53:57;5.27;;;3.27;;
51499;SDS011;39101;53.478;6.158;2023-10-19T09:56:35;5.13;;;3.83;;
51499;SDS011;39101;53.478;6.158;2023-10-19T09:59:11;5.50;;;3.60;;
51499;SDS011;39101;53.478;6.158;2023-10-19T10:02:04;5.87;;;3.43;;
51499;SDS011;39101;53.478;6.158;2023-10-19T10:04:35;5.10;;;3.70;;
51499;SDS011;39101;53.478;6.158;2023-10-19T10:07:01;5.30;;;2.93;;
51499;SDS011;39101;53.478;6.158;2023-10-19T10:09:31;6.35;;;4.18;;
51499;SDS011;39101;53.478;6.158;2023-10-19T10:12:18;7.40;;;4.20;;
51499;SDS011;39101;53.478;6.158;2023-10-19T10:14:59;6.80;;;3.80;;
51499;SDS011;39101;53.478;6.158;2023-10-19T10:17:38;4.80;;;3.60;;
51499;SDS011;39101;53.478;6.158;2023-10-19T10:20:28;4.80;;;3.73;;
51499;SDS011;39101;53.478;6.158;2023-10-19T10:25:42;6.93;;;4.23;;
51499;SDS011;39101;53.478;6.158;2023-10-19T10:28:14;6.13;;;4.20;;
51499;SDS011;39101;53.478;6.158;2023-10-19T10:33:37;7.93;;;5.20;;
51499;SDS011;39101;53.478;6.158;2023-10-19T10:36:07;8.00;;;5.80;;
51499;SDS011;39101;53.478;6.158;2023-10-19T10:41:00;9.53;;;6.80;;
51499;SDS011;39101;53.478;6.158;2023-10-19T10:43:27;9.07;;;7.17;;
51499;SDS011;39101;53.478;6.158;2023-10-19T10:46:02;9.93;;;6.63;;
51499;SDS011;39101;53.478;6.158;2023-10-19T10:48:28;6.80;;;5.00;;
51499;SDS011;39101;53.478;6.158;2023-10-19T10:50:54;9.77;;;6.67;;
51499;SDS011;39101;53.478;6.158;2023-10-19T10:53:20;5.73;;;4.07;;
51499;SDS011;39101;53.478;6.158;2023-10-19T10:55:50;6.00;;;3.93;;
51499;SDS011;39101;53.478;6.158;2023-10-19T10:58:36;6.33;;;3.93;;
51499;SDS011;39101;53.478;6.158;2023-10-19T11:01:05;7.47;;;4.03;;
51499;SDS011;39101;53.478;6.158;2023-10-19T11:03:42;5.27;;;3.20;;
51499;SDS011;39101;53.478;6.158;2023-10-19T11:06:11;4.27;;;3.17;;
51499;SDS011;39101;53.478;6.158;2023-10-19T11:08:40;4.60;;;3.13;;
51499;SDS011;39101;53.478;6.158;2023-10-19T11:11:07;6.70;;;3.03;;
51499;SDS011;39101;53.478;6.158;2023-10-19T11:13:39;4.07;;;2.78;;
51499;SDS011;39101;53.478;6.158;2023-10-19T11:16:05;7.77;;;3.37;;
51499;SDS011;39101;53.478;6.158;2023-10-19T11:21:06;7.97;;;4.03;;
51499;SDS011;39101;53.478;6.158;2023-10-19T11:26:07;8.80;;;3.65;;
51499;SDS011;39101;53.478;6.158;2023-10-19T11:28:37;7.77;;;4.03;;
51499;SDS011;39101;53.478;6.158;2023-10-19T11:33:37;7.07;;;3.93;;
51499;SDS011;39101;53.478;6.158;2023-10-19T11:36:03;6.83;;;4.00;;
51499;SDS011;39101;53.478;6.158;2023-10-19T11:38:30;7.63;;;3.50;;
51499;SDS011;39101;53.478;6.158;2023-10-19T11:40:55;10.37;;;4.40;;
51499;SDS011;39101;53.478;6.158;2023-10-19T11:43:21;6.73;;;4.10;;
51499;SDS011;39101;53.478;6.158;2023-10-19T11:45:46;5.50;;;3.70;;
51499;SDS011;39101;53.478;6.158;2023-10-19T11:48:12;5.50;;;3.00;;
51499;SDS011;39101;53.478;6.158;2023-10-19T11:50:38;8.53;;;3.80;;
51499;SDS011;39101;53.478;6.158;2023-10-19T11:53:04;5.30;;;3.23;;
51499;SDS011;39101;53.478;6.158;2023-10-19T11:55:30;6.23;;;3.57;;
51499;SDS011;39101;53.478;6.158;2023-10-19T11:57:56;7.97;;;3.70;;
51499;SDS011;39101;53.478;6.158;2023-10-19T12:00:22;7.17;;;3.77;;
51499;SDS011;39101;53.478;6.158;2023-10-19T12:03:01;7.20;;;3.73;;
51499;SDS011;39101;53.478;6.158;2023-10-19T12:05:28;7.50;;;4.03;;
51499;SDS011;39101;53.478;6.158;2023-10-19T12:07:54;5.57;;;3.70;;
51499;SDS011;39101;53.478;6.158;2023-10-19T12:10:21;7.17;;;4.03;;
51499;SDS011;39101;53.478;6.158;2023-10-19T12:12:57;11.23;;;3.90;;
51499;SDS011;39101;53.478;6.158;2023-10-19T12:15:23;7.13;;;3.20;;
51499;SDS011;39101;53.478;6.158;2023-10-19T12:17:50;8.73;;;4.10;;
51499;SDS011;39101;53.478;6.158;2023-10-19T12:20:16;9.63;;;4.10;;
51499;SDS011;39101;53.478;6.158;2023-10-19T12:25:13;8.60;;;3.47;;
51499;SDS011;39101;53.478;6.158;2023-10-19T12:27:39;8.47;;;3.93;;
51499;SDS011;39101;53.478;6.158;2023-10-19T12:30:11;5.47;;;3.70;;
51499;SDS011;39101;53.478;6.158;2023-10-19T12:32:50;7.80;;;4.30;;
51499;SDS011;39101;53.478;6.158;2023-10-19T12:35:19;6.17;;;3.50;;
51499;SDS011;39101;53.478;6.158;2023-10-19T12:37:50;7.47;;;3.40;;
51499;SDS011;39101;53.478;6.158;2023-10-19T12:40:18;4.93;;;3.30;;
51499;SDS011;39101;53.478;6.158;2023-10-19T12:42:56;6.17;;;3.43;;
51499;SDS011;39101;53.478;6.158;2023-10-19T12:45:23;7.03;;;3.57;;
51499;SDS011;39101;53.478;6.158;2023-10-19T12:47:52;7.85;;;3.95;;
51499;SDS011;39101;53.478;6.158;2023-10-19T12:50:25;7.67;;;3.30;;
51499;SDS011;39101;53.478;6.158;2023-10-19T12:52:52;5.50;;;3.43;;
51499;SDS011;39101;53.478;6.158;2023-10-19T12:55:21;7.70;;;3.80;;
51499;SDS011;39101;53.478;6.158;2023-10-19T12:57:54;9.30;;;3.60;;
51499;SDS011;39101;53.478;6.158;2023-10-19T13:00:31;7.33;;;3.67;;
51499;SDS011;39101;53.478;6.158;2023-10-19T13:03:01;5.25;;;3.42;;
51499;SDS011;39101;53.478;6.158;2023-10-19T13:05:36;7.33;;;3.93;;
51499;SDS011;39101;53.478;6.158;2023-10-19T13:08:05;5.13;;;3.37;;
51499;SDS011;39101;53.478;6.158;2023-10-19T13:10:33;6.38;;;3.83;;
51499;SDS011;39101;53.478;6.158;2023-10-19T13:13:03;9.87;;;4.20;;
51499;SDS011;39101;53.478;6.158;2023-10-19T13:15:39;8.73;;;3.33;;
51499;SDS011;39101;53.478;6.158;2023-10-19T13:18:07;6.20;;;3.80;;
51499;SDS011;39101;53.478;6.158;2023-10-19T13:20:34;6.93;;;3.63;;
51499;SDS011;39101;53.478;6.158;2023-10-19T13:23:10;7.17;;;3.53;;
51499;SDS011;39101;53.478;6.158;2023-10-19T13:26:09;7.03;;;3.90;;
51499;SDS011;39101;53.478;6.158;2023-10-19T13:28:55;4.93;;;3.23;;
51499;SDS011;39101;53.478;6.158;2023-10-19T13:31:21;6.60;;;3.50;;
51499;SDS011;39101;53.478;6.158;2023-10-19T13:33:47;5.43;;;3.33;;
51499;SDS011;39101;53.478;6.158;2023-10-19T13:36:16;5.97;;;3.53;;
51499;SDS011;39101;53.478;6.158;2023-10-19T13:38:49;4.50;;;3.17;;
51499;SDS011;39101;53.478;6.158;2023-10-19T13:41:17;5.23;;;3.47;;
51499;SDS011;39101;53.478;6.158;2023-10-19T13:43:43;5.60;;;2.83;;
51499;SDS011;39101;53.478;6.158;2023-10-19T13:46:09;8.00;;;3.67;;
51499;SDS011;39101;53.478;6.158;2023-10-19T13:48:35;7.70;;;5.07;;
51499;SDS011;39101;53.478;6.158;2023-10-19T13:51:02;7.13;;;3.03;;
51499;SDS011;39101;53.478;6.158;2023-10-19T13:53:55;5.50;;;2.90;;
51499;SDS011;39101;53.478;6.158;2023-10-19T13:56:21;8.57;;;3.60;;
51499;SDS011;39101;53.478;6.158;2023-10-19T13:58:47;6.20;;;3.00;;
51499;SDS011;39101;53.478;6.158;2023-10-19T14:01:15;12.53;;;4.67;;
51499;SDS011;39101;53.478;6.158;2023-10-19T14:03:41;8.50;;;3.40;;
51499;SDS011;39101;53.478;6.158;2023-10-19T14:06:11;9.03;;;4.60;;
51499;SDS011;39101;53.478;6.158;2023-10-19T14:08:38;9.33;;;4.70;;
51499;SDS011;39101;53.478;6.158;2023-10-19T14:11:04;8.23;;;4.80;;
51499;SDS011;39101;53.478;6.158;2023-10-19T14:13:29;8.07;;;3.70;;
51499;SDS011;39101;53.478;6.158;2023-10-19T14:16:08;9.17;;;3.50;;
51499;SDS011;39101;53.478;6.158;2023-10-19T14:18:35;6.97;;;3.73;;
51499;SDS011;39101;53.478;6.158;2023-10-19T14:21:10;8.03;;;3.97;;
51499;SDS011;39101;53.478;6.158;2023-10-19T14:23:40;6.17;;;3.57;;
51499;SDS011;39101;53.478;6.158;2023-10-19T14:26:06;8.03;;;3.80;;
51499;SDS011;39101;53.478;6.158;2023-10-19T14:28:32;8.90;;;3.60;;
51499;SDS011;39101;53.478;6.158;2023-10-19T14:31:00;6.17;;;3.87;;
51499;SDS011;39101;53.478;6.158;2023-10-19T14:33:29;9.93;;;4.17;;
51499;SDS011;39101;53.478;6.158;2023-10-19T14:35:55;10.37;;;4.33;;
51499;SDS011;39101;53.478;6.158;2023-10-19T14:38:21;10.27;;;4.20;;
51499;SDS011;39101;53.478;6.158;2023-10-19T14:40:46;7.67;;;3.73;;
51499;SDS011;39101;53.478;6.158;2023-10-19T14:43:13;10.20;;;4.03;;
51499;SDS011;39101;53.478;6.158;2023-10-19T14:45:40;8.10;;;3.67;;
51499;SDS011;39101;53.478;6.158;2023-10-19T14:48:06;9.73;;;4.70;;
51499;SDS011;39101;53.478;6.158;2023-10-19T14:50:35;8.33;;;4.30;;
51499;SDS011;39101;53.478;6.158;2023-10-19T14:53:02;8.37;;;4.20;;
51499;SDS011;39101;53.478;6.158;2023-10-19T14:55:29;8.83;;;4.53;;
51499;SDS011;39101;53.478;6.158;2023-10-19T14:57:55;10.30;;;4.03;;
51499;SDS011;39101;53.478;6.158;2023-10-19T15:00:21;14.33;;;5.20;;
51499;SDS011;39101;53.478;6.158;2023-10-19T15:02:54;10.02;;;4.65;;
51499;SDS011;39101;53.478;6.158;2023-10-19T15:05:25;7.00;;;4.13;;
51499;SDS011;39101;53.478;6.158;2023-10-19T15:07:52;11.80;;;5.83;;
51499;SDS011;39101;53.478;6.158;2023-10-19T15:10:19;8.63;;;4.60;;
51499;SDS011;39101;53.478;6.158;2023-10-19T15:12:46;11.93;;;4.50;;
51499;SDS011;39101;53.478;6.158;2023-10-19T15:15:12;11.83;;;5.37;;
51499;SDS011;39101;53.478;6.158;2023-10-19T15:17:39;14.57;;;5.97;;
51499;SDS011;39101;53.478;6.158;2023-10-19T15:20:06;14.50;;;5.60;;
51499;SDS011;39101;53.478;6.158;2023-10-19T15:22:35;6.90;;;5.10;;